Karns, Tennessee
Current Conditions -  °F | °C
As of 4:53 AM on Friday 21 Nov 2014 (Local Time) from KTYS Reporting Station
Clear Clear  
Wind Chill: 29°   Ceiling: Unl
Heat Index: 29°   Visibility: 10mi
Dew Point: 24°   Wind: 3mph
Humidity: 82%   Direction: 80°E
Pressure: 30.35"   Gusts: NA
Location:  35.9785°N, 84.0015°W
Report Text: KTYS 210953Z 08003KT 10SM CLR M02/M04 A3035 RMK AO2 SLP282 T10171044
Loading
Personal Weather Stations






























Interactive Weather Map New forecast layout! Learn more

10-Day Weather Forecast

Advertisements
Track Severe Weather on mobile